地図

経路データ

SID SEASON NUMBER BASIN SUBBASIN NAME ISO_TIME NATURE LAT LON WMO_WIND WMO_PRES WMO_AGENCY TRACK_TYPE DIST2LAND LANDFALL IFLAG USA_AGENCY USA_ATCF_ID USA_LAT USA_LON USA_RECORD USA_STATUS USA_WIND USA_PRES USA_SSHS USA_R34_NE USA_R34_SE USA_R34_SW USA_R34_NW USA_R50_NE USA_R50_SE USA_R50_SW USA_R50_NW USA_R64_NE USA_R64_SE USA_R64_SW USA_R64_NW USA_POCI USA_ROCI USA_RMW USA_EYE TOKYO_LAT TOKYO_LON TOKYO_GRADE TOKYO_WIND TOKYO_PRES TOKYO_R50_DIR TOKYO_R50_LONG TOKYO_R50_SHORT TOKYO_R30_DIR TOKYO_R30_LONG TOKYO_R30_SHORT TOKYO_LAND CMA_LAT CMA_LON CMA_CAT CMA_WIND CMA_PRES HKO_LAT HKO_LON HKO_CAT HKO_WIND HKO_PRES NEWDELHI_LAT NEWDELHI_LON NEWDELHI_GRADE NEWDELHI_WIND NEWDELHI_PRES NEWDELHI_CI NEWDELHI_DP NEWDELHI_POCI REUNION_LAT REUNION_LON REUNION_TYPE REUNION_WIND REUNION_PRES REUNION_TNUM REUNION_CI REUNION_RMW REUNION_R34_NE REUNION_R34_SE REUNION_R34_SW REUNION_R34_NW REUNION_R50_NE REUNION_R50_SE REUNION_R50_SW REUNION_R50_NW REUNION_R64_NE REUNION_R64_SE REUNION_R64_SW REUNION_R64_NW BOM_LAT BOM_LON BOM_TYPE BOM_WIND BOM_PRES BOM_TNUM BOM_CI BOM_RMW BOM_R34_NE BOM_R34_SE BOM_R34_SW BOM_R34_NW BOM_R50_NE BOM_R50_SE BOM_R50_SW BOM_R50_NW BOM_R64_NE BOM_R64_SE BOM_R64_SW BOM_R64_NW BOM_ROCI BOM_POCI BOM_EYE BOM_POS_METHOD BOM_PRES_METHOD NADI_LAT NADI_LON NADI_CAT NADI_WIND NADI_PRES WELLINGTON_LAT WELLINGTON_LON WELLINGTON_WIND WELLINGTON_PRES DS824_LAT DS824_LON DS824_STAGE DS824_WIND DS824_PRES TD9636_LAT TD9636_LON TD9636_STAGE TD9636_WIND TD9636_PRES TD9635_LAT TD9635_LON TD9635_WIND TD9635_PRES TD9635_ROCI NEUMANN_LAT NEUMANN_LON NEUMANN_CLASS NEUMANN_WIND NEUMANN_PRES MLC_LAT MLC_LON MLC_CLASS MLC_WIND MLC_PRES USA_GUST BOM_GUST BOM_GUST_PER REUNION_GUST REUNION_GUST_PER USA_SEAHGT USA_SEARAD_NE USA_SEARAD_SE USA_SEARAD_SW USA_SEARAD_NW STORM_SPEED STORM_DIR
1945120N12093 1945 23 NI BB NOT_NAMED 1945-04-29 18:00:00 TS 11.7000 92.5000 main 502 502 O________O____ jtwc_io IO011945 11.7000 92.5000 -1 11.7000 92.5000 TC 1 291
1945120N12093 1945 23 NI BB NOT_NAMED 1945-04-29 21:00:00 TS 11.7200 92.4375 main 507 497 P________P____ IO011945 11.7200 92.4375 -1 11.7200 92.4375 TC 2 297
1945120N12093 1945 23 NI BB NOT_NAMED 1945-04-30 00:00:00 TS 11.8000 92.3000 main 502 492 O________O____ jtwc_io IO011945 11.8000 92.3000 -1 11.8000 92.3000 TC 25 5 303
1945120N12093 1945 23 NI BB NOT_NAMED 1945-04-30 03:00:00 TS 11.9800 92.0334 main 498 491 P________PO___ IO011945 11.9775 92.0375 -1 11.9775 92.0375 TC 25 12.0000 92.0000 1 7 304
1945120N12093 1945 23 NI BB NOT_NAMED 1945-04-30 06:00:00 TS 12.2015 91.6993 main 497 494 O________OP___ jtwc_io IO011945 12.2000 91.7000 -1 12.2000 91.7000 TC 25 12.2077 91.6966 1 8 303
1945120N12093 1945 23 NI BB NOT_NAMED 1945-04-30 09:00:00 TS 12.3951 91.3675 main 499 498 P________PP___ IO011945 12.3850 91.3649 -1 12.3850 91.3649 TC 25 12.4222 91.3745 1 8 301
1945120N12093 1945 23 NI BB NOT_NAMED 1945-04-30 12:00:00 TS 12.6169 91.0050 main 512 512 O________OP___ jtwc_io IO011945 12.6000 91.0000 -1 12.6000 91.0000 TC 25 12.6506 91.0151 1 9 304
1945120N12093 1945 23 NI BB NOT_NAMED 1945-04-30 15:00:00 TS 12.8900 90.6100 main 520 520 P________PO___ IO011945 12.8849 90.6150 -1 12.8849 90.6150 TC 25 12.9000 90.6000 1 10 305
1945120N12093 1945 23 NI BB NOT_NAMED 1945-04-30 18:00:00 TS 13.1922 90.1753 main 532 532 O________OP___ jtwc_io IO011945 13.2000 90.2000 -1 13.2000 90.2000 TC 25 13.1765 90.1259 1 11 304
1945120N12093 1945 23 NI BB NOT_NAMED 1945-04-30 21:00:00 TS 13.4845 89.6971 main 559 559 P________PP___ IO011945 13.4851 89.7200 -1 13.4851 89.7200 TC 25 13.4832 89.6514 1 11 305
1945120N12093 1945 23 NI BB NOT_NAMED 1945-05-01 00:00:00 TS 13.8078 89.2837 main 581 581 O________OP___ jtwc_io IO011945 13.8000 89.3000 -1 13.8000 89.3000 TC 25 13.8233 89.2511 1 10 316
1945120N12093 1945 23 NI BB NOT_NAMED 1945-05-01 03:00:00 TS 14.1799 89.0018 main 593 589 P________PO___ IO011945 14.1699 89.0027 -1 14.1699 89.0027 TC 25 14.2000 89.0000 1 9 336
1945120N12093 1945 23 NI BB NOT_NAMED 1945-05-01 06:00:00 TS 14.6126 88.9195 main 589 566 O________OP___ jtwc_io IO011945 14.6000 88.9000 -1 14.6000 88.9000 TC 25 14.6379 88.9586 1 9 2
1945120N12093 1945 23 NI BB NOT_NAMED 1945-05-01 09:00:00 TS 15.1023 89.0412 main 566 526 P________PP___ IO011945 15.1000 89.0248 -1 15.1000 89.0248 TC 25 15.1069 89.0740 1 11 21
1945120N12093 1945 23 NI BB NOT_NAMED 1945-05-01 12:00:00 TS 15.5908 89.3008 main 526 491 O________OP___ jtwc_io IO011945 15.6000 89.3000 -1 15.6000 89.3000 TC 25 15.5724 89.3025 1 11 30
1945120N12093 1945 23 NI BB NOT_NAMED 1945-05-01 15:00:00 TS 16.0200 89.5850 main 491 460 P________PO___ IO011945 16.0300 89.5776 -1 16.0300 89.5776 TC 25 16.0000 89.6000 1 10 36
1945120N12093 1945 23 NI BB NOT_NAMED 1945-05-01 18:00:00 TS 16.3855 89.9113 main 461 432 O________OP___ jtwc_io IO011945 16.4000 89.9000 -1 16.4000 89.9000 TC 25 16.3638 89.9283 1 9 44
1945120N12093 1945 23 NI BB NOT_NAMED 1945-05-01 21:00:00 TS 16.6971 90.2577 main 423 396 P________PP___ IO011945 16.7151 90.2448 -1 16.7151 90.2448 TC 25 16.6732 90.2749 1 9 49
1945120N12093 1945 23 NI BB NOT_NAMED 1945-05-02 00:00:00 TS 16.9730 90.6171 main 396 349 O________OP___ jtwc_io IO011945 17.0000 90.6000 -1 17.0000 90.6000 TC 25 16.9459 90.6341 1 9 55
1945120N12093 1945 23 NI BB NOT_NAMED 1945-05-02 03:00:00 NR 17.2000 91.0000 main 349 __________O___ IO011945 -1 TC 17.2000 91.0000 1 9 58

IBTrACS Databaseについて

本データベースは、米国NOAAが公開する1842年以降の世界の熱帯低気圧のベストトラックデータアーカイブInternational Best Track Archive for Climate Stewardship (IBTrACS)を、ウェブで閲覧しやすい形式に変換したものです。

最終更新日:2021-10-21